sensor_id;sensor_type;location;lat;lon;timestamp;temperature;humidity
19920;DHT22;10122;50.074;19.920;2024-01-30T00:01:26;1.20;99.90
19920;DHT22;10122;50.074;19.920;2024-01-30T00:03:52;1.20;99.90
19920;DHT22;10122;50.074;19.920;2024-01-30T00:06:21;1.20;99.90
19920;DHT22;10122;50.074;19.920;2024-01-30T00:08:47;1.10;99.90
19920;DHT22;10122;50.074;19.920;2024-01-30T00:11:15;1.10;99.90
19920;DHT22;10122;50.074;19.920;2024-01-30T00:13:41;1.10;99.90
19920;DHT22;10122;50.074;19.920;2024-01-30T00:16:07;1.10;99.90
19920;DHT22;10122;50.074;19.920;2024-01-30T00:18:34;1.10;99.90
19920;DHT22;10122;50.074;19.920;2024-01-30T00:21:00;1.10;99.90
19920;DHT22;10122;50.074;19.920;2024-01-30T00:23:25;1.10;99.90
19920;DHT22;10122;50.074;19.920;2024-01-30T00:25:51;1.10;99.90
19920;DHT22;10122;50.074;19.920;2024-01-30T00:28:17;1.10;99.90
19920;DHT22;10122;50.074;19.920;2024-01-30T00:30:43;1.10;99.90
19920;DHT22;10122;50.074;19.920;2024-01-30T00:33:09;1.00;99.90
19920;DHT22;10122;50.074;19.920;2024-01-30T00:35:35;1.00;99.90
19920;DHT22;10122;50.074;19.920;2024-01-30T00:38:00;1.00;99.90
19920;DHT22;10122;50.074;19.920;2024-01-30T00:40:26;1.00;99.90
19920;DHT22;10122;50.074;19.920;2024-01-30T00:42:52;1.00;99.90
19920;DHT22;10122;50.074;19.920;2024-01-30T00:45:17;0.90;99.90
19920;DHT22;10122;50.074;19.920;2024-01-30T00:47:44;0.90;99.90
19920;DHT22;10122;50.074;19.920;2024-01-30T00:50:10;0.90;99.90
19920;DHT22;10122;50.074;19.920;2024-01-30T00:52:36;0.90;99.90
19920;DHT22;10122;50.074;19.920;2024-01-30T00:55:04;0.80;99.90
19920;DHT22;10122;50.074;19.920;2024-01-30T00:57:30;0.80;99.90
19920;DHT22;10122;50.074;19.920;2024-01-30T00:59:56;0.80;99.90
19920;DHT22;10122;50.074;19.920;2024-01-30T01:02:22;0.80;99.90
19920;DHT22;10122;50.074;19.920;2024-01-30T01:04:48;0.80;99.90
19920;DHT22;10122;50.074;19.920;2024-01-30T01:07:13;0.80;99.90
19920;DHT22;10122;50.074;19.920;2024-01-30T01:09:39;0.80;99.90
19920;DHT22;10122;50.074;19.920;2024-01-30T01:12:05;0.80;99.90
19920;DHT22;10122;50.074;19.920;2024-01-30T01:14:31;0.70;99.90
19920;DHT22;10122;50.074;19.920;2024-01-30T01:16:56;0.70;99.90
19920;DHT22;10122;50.074;19.920;2024-01-30T01:19:22;0.70;99.90
19920;DHT22;10122;50.074;19.920;2024-01-30T01:21:48;0.70;99.90
19920;DHT22;10122;50.074;19.920;2024-01-30T01:24:13;0.80;99.90
19920;DHT22;10122;50.074;19.920;2024-01-30T01:26:39;0.80;99.90
19920;DHT22;10122;50.074;19.920;2024-01-30T01:29:06;0.70;99.90
19920;DHT22;10122;50.074;19.920;2024-01-30T01:31:38;0.70;99.90
19920;DHT22;10122;50.074;19.920;2024-01-30T01:34:11;0.70;99.90
19920;DHT22;10122;50.074;19.920;2024-01-30T01:36:37;0.70;99.90
19920;DHT22;10122;50.074;19.920;2024-01-30T01:39:03;0.70;99.90
19920;DHT22;10122;50.074;19.920;2024-01-30T01:41:32;0.80;99.90
19920;DHT22;10122;50.074;19.920;2024-01-30T01:43:59;0.80;99.90
19920;DHT22;10122;50.074;19.920;2024-01-30T01:46:30;0.80;99.90
19920;DHT22;10122;50.074;19.920;2024-01-30T01:48:58;0.70;99.90
19920;DHT22;10122;50.074;19.920;2024-01-30T01:51:24;0.70;99.90
19920;DHT22;10122;50.074;19.920;2024-01-30T01:53:53;0.70;99.90
19920;DHT22;10122;50.074;19.920;2024-01-30T01:56:19;0.60;99.90
19920;DHT22;10122;50.074;19.920;2024-01-30T01:58:46;0.60;99.90
19920;DHT22;10122;50.074;19.920;2024-01-30T02:01:13;0.60;99.90
19920;DHT22;10122;50.074;19.920;2024-01-30T02:03:41;0.60;99.90
19920;DHT22;10122;50.074;19.920;2024-01-30T02:06:07;0.50;99.90
19920;DHT22;10122;50.074;19.920;2024-01-30T02:08:33;0.50;99.90
19920;DHT22;10122;50.074;19.920;2024-01-30T02:10:59;0.50;99.90
19920;DHT22;10122;50.074;19.920;2024-01-30T02:13:25;0.50;99.90
19920;DHT22;10122;50.074;19.920;2024-01-30T02:15:53;0.50;99.90
19920;DHT22;10122;50.074;19.920;2024-01-30T02:18:20;0.50;99.90
19920;DHT22;10122;50.074;19.920;2024-01-30T02:20:47;0.50;99.90
19920;DHT22;10122;50.074;19.920;2024-01-30T02:23:15;0.50;99.90
19920;DHT22;10122;50.074;19.920;2024-01-30T02:25:42;0.40;99.90
19920;DHT22;10122;50.074;19.920;2024-01-30T02:28:13;0.40;99.90
19920;DHT22;10122;50.074;19.920;2024-01-30T02:30:39;0.40;99.90
19920;DHT22;10122;50.074;19.920;2024-01-30T02:33:05;0.40;99.90
19920;DHT22;10122;50.074;19.920;2024-01-30T02:35:31;0.40;99.90
19920;DHT22;10122;50.074;19.920;2024-01-30T02:37:57;0.40;99.90
19920;DHT22;10122;50.074;19.920;2024-01-30T02:40:22;0.30;99.90
19920;DHT22;10122;50.074;19.920;2024-01-30T02:42:48;0.30;99.90
19920;DHT22;10122;50.074;19.920;2024-01-30T02:45:14;0.30;99.90
19920;DHT22;10122;50.074;19.920;2024-01-30T02:47:40;0.30;99.90
19920;DHT22;10122;50.074;19.920;2024-01-30T02:50:06;0.30;99.90
19920;DHT22;10122;50.074;19.920;2024-01-30T02:52:32;0.30;99.90
19920;DHT22;10122;50.074;19.920;2024-01-30T02:54:58;0.20;99.90
19920;DHT22;10122;50.074;19.920;2024-01-30T02:57:24;0.20;99.90
19920;DHT22;10122;50.074;19.920;2024-01-30T02:59:49;0.20;99.90
19920;DHT22;10122;50.074;19.920;2024-01-30T03:02:15;0.20;99.90
19920;DHT22;10122;50.074;19.920;2024-01-30T03:04:41;0.20;99.90
19920;DHT22;10122;50.074;19.920;2024-01-30T03:07:07;0.10;99.90
19920;DHT22;10122;50.074;19.920;2024-01-30T03:09:34;0.20;99.90
19920;DHT22;10122;50.074;19.920;2024-01-30T03:12:00;0.10;99.90
19920;DHT22;10122;50.074;19.920;2024-01-30T03:14:26;0.10;99.90
19920;DHT22;10122;50.074;19.920;2024-01-30T03:16:52;0.10;99.90
19920;DHT22;10122;50.074;19.920;2024-01-30T03:19:17;0.10;99.90
19920;DHT22;10122;50.074;19.920;2024-01-30T03:21:44;0.00;99.90
19920;DHT22;10122;50.074;19.920;2024-01-30T03:24:09;0.10;99.90
19920;DHT22;10122;50.074;19.920;2024-01-30T03:26:35;0.00;99.90
19920;DHT22;10122;50.074;19.920;2024-01-30T03:29:01;0.00;99.90
19920;DHT22;10122;50.074;19.920;2024-01-30T03:31:27;-0.10;99.90
19920;DHT22;10122;50.074;19.920;2024-01-30T03:33:53;-0.10;99.90
19920;DHT22;10122;50.074;19.920;2024-01-30T03:36:18;-0.10;99.90
19920;DHT22;10122;50.074;19.920;2024-01-30T03:38:44;-0.10;99.90
19920;DHT22;10122;50.074;19.920;2024-01-30T03:41:10;-0.20;99.90
19920;DHT22;10122;50.074;19.920;2024-01-30T03:43:36;-0.20;99.90
19920;DHT22;10122;50.074;19.920;2024-01-30T03:46:02;-0.20;99.90
19920;DHT22;10122;50.074;19.920;2024-01-30T03:48:28;-0.20;99.90
19920;DHT22;10122;50.074;19.920;2024-01-30T03:50:54;-0.20;99.90
19920;DHT22;10122;50.074;19.920;2024-01-30T03:53:20;-0.20;99.90
19920;DHT22;10122;50.074;19.920;2024-01-30T03:55:46;-0.20;99.90
19920;DHT22;10122;50.074;19.920;2024-01-30T03:58:11;-0.20;99.90
19920;DHT22;10122;50.074;19.920;2024-01-30T04:00:37;-0.20;99.90
19920;DHT22;10122;50.074;19.920;2024-01-30T04:03:03;-0.20;99.90
19920;DHT22;10122;50.074;19.920;2024-01-30T04:05:29;-0.20;99.90
19920;DHT22;10122;50.074;19.920;2024-01-30T04:07:54;-0.20;99.90
19920;DHT22;10122;50.074;19.920;2024-01-30T04:10:20;-0.10;99.90
19920;DHT22;10122;50.074;19.920;2024-01-30T04:12:46;-0.20;99.90
19920;DHT22;10122;50.074;19.920;2024-01-30T04:15:11;-0.20;99.90
19920;DHT22;10122;50.074;19.920;2024-01-30T04:17:39;-0.20;99.90
19920;DHT22;10122;50.074;19.920;2024-01-30T04:20:05;-0.20;99.90
19920;DHT22;10122;50.074;19.920;2024-01-30T04:22:31;-0.30;99.90
19920;DHT22;10122;50.074;19.920;2024-01-30T04:24:57;-0.30;99.90
19920;DHT22;10122;50.074;19.920;2024-01-30T04:27:23;-0.30;99.90
19920;DHT22;10122;50.074;19.920;2024-01-30T04:29:48;-0.30;99.90
19920;DHT22;10122;50.074;19.920;2024-01-30T04:32:14;-0.30;99.90
19920;DHT22;10122;50.074;19.920;2024-01-30T04:34:40;-0.30;99.90
19920;DHT22;10122;50.074;19.920;2024-01-30T04:37:05;-0.30;99.90
19920;DHT22;10122;50.074;19.920;2024-01-30T04:39:33;-0.40;99.90
19920;DHT22;10122;50.074;19.920;2024-01-30T04:41:59;-0.40;99.90
19920;DHT22;10122;50.074;19.920;2024-01-30T04:44:25;-0.40;99.90
19920;DHT22;10122;50.074;19.920;2024-01-30T04:46:50;-0.50;99.90
19920;DHT22;10122;50.074;19.920;2024-01-30T04:49:16;-0.50;99.90
19920;DHT22;10122;50.074;19.920;2024-01-30T04:51:42;-0.50;99.90
19920;DHT22;10122;50.074;19.920;2024-01-30T04:54:07;-0.50;99.90
19920;DHT22;10122;50.074;19.920;2024-01-30T04:56:33;-0.50;99.90
19920;DHT22;10122;50.074;19.920;2024-01-30T04:58:59;-0.40;99.90
19920;DHT22;10122;50.074;19.920;2024-01-30T05:01:25;-0.40;99.90
19920;DHT22;10122;50.074;19.920;2024-01-30T05:03:51;-0.30;99.90
19920;DHT22;10122;50.074;19.920;2024-01-30T05:06:26;-0.20;99.90
19920;DHT22;10122;50.074;19.920;2024-01-30T05:08:52;-0.20;99.90
19920;DHT22;10122;50.074;19.920;2024-01-30T05:11:18;-0.30;99.90
19920;DHT22;10122;50.074;19.920;2024-01-30T05:13:44;-0.30;99.90
19920;DHT22;10122;50.074;19.920;2024-01-30T05:16:10;-0.40;99.90
19920;DHT22;10122;50.074;19.920;2024-01-30T05:18:35;-0.40;99.90
19920;DHT22;10122;50.074;19.920;2024-01-30T05:21:02;-0.40;99.90
19920;DHT22;10122;50.074;19.920;2024-01-30T05:23:28;-0.50;99.90
19920;DHT22;10122;50.074;19.920;2024-01-30T05:25:53;-0.50;99.90
19920;DHT22;10122;50.074;19.920;2024-01-30T05:28:19;-0.50;99.90
19920;DHT22;10122;50.074;19.920;2024-01-30T05:30:45;-0.50;99.90
19920;DHT22;10122;50.074;19.920;2024-01-30T05:33:10;-0.50;99.90
19920;DHT22;10122;50.074;19.920;2024-01-30T05:35:37;-0.60;99.90
19920;DHT22;10122;50.074;19.920;2024-01-30T05:38:03;-0.60;99.90
19920;DHT22;10122;50.074;19.920;2024-01-30T05:40:32;-0.60;99.90
19920;DHT22;10122;50.074;19.920;2024-01-30T05:42:58;-0.60;99.90
19920;DHT22;10122;50.074;19.920;2024-01-30T05:45:26;-0.60;99.90
19920;DHT22;10122;50.074;19.920;2024-01-30T05:47:52;-0.60;99.90
19920;DHT22;10122;50.074;19.920;2024-01-30T05:50:19;-0.60;99.90
19920;DHT22;10122;50.074;19.920;2024-01-30T05:52:45;-0.60;99.90
19920;DHT22;10122;50.074;19.920;2024-01-30T05:55:15;-0.70;99.90
19920;DHT22;10122;50.074;19.920;2024-01-30T05:57:41;-0.70;99.90
19920;DHT22;10122;50.074;19.920;2024-01-30T06:00:07;-0.70;99.90
19920;DHT22;10122;50.074;19.920;2024-01-30T06:02:34;-0.70;99.90
19920;DHT22;10122;50.074;19.920;2024-01-30T06:04:59;-0.70;99.90
19920;DHT22;10122;50.074;19.920;2024-01-30T06:07:25;-0.70;99.90
19920;DHT22;10122;50.074;19.920;2024-01-30T06:09:51;-0.70;99.90
19920;DHT22;10122;50.074;19.920;2024-01-30T06:12:16;-0.70;99.90
19920;DHT22;10122;50.074;19.920;2024-01-30T06:14:42;-0.70;99.90
19920;DHT22;10122;50.074;19.920;2024-01-30T06:17:08;-0.70;99.90
19920;DHT22;10122;50.074;19.920;2024-01-30T06:19:34;-0.80;99.90
19920;DHT22;10122;50.074;19.920;2024-01-30T06:22:00;-0.80;99.90
19920;DHT22;10122;50.074;19.920;2024-01-30T06:24:26;-0.80;99.90
19920;DHT22;10122;50.074;19.920;2024-01-30T06:26:53;-0.80;99.90
19920;DHT22;10122;50.074;19.920;2024-01-30T06:29:18;-0.80;99.90
19920;DHT22;10122;50.074;19.920;2024-01-30T06:31:44;-0.80;99.90
19920;DHT22;10122;50.074;19.920;2024-01-30T06:34:10;-0.80;99.90
19920;DHT22;10122;50.074;19.920;2024-01-30T06:36:37;-0.80;99.90
19920;DHT22;10122;50.074;19.920;2024-01-30T06:39:03;-0.80;99.90
19920;DHT22;10122;50.074;19.920;2024-01-30T06:41:29;-0.80;99.90
19920;DHT22;10122;50.074;19.920;2024-01-30T06:43:55;-0.70;99.90
19920;DHT22;10122;50.074;19.920;2024-01-30T06:46:21;-0.70;99.90
19920;DHT22;10122;50.074;19.920;2024-01-30T06:48:47;-0.70;99.90
19920;DHT22;10122;50.074;19.920;2024-01-30T06:51:12;-0.70;99.90
19920;DHT22;10122;50.074;19.920;2024-01-30T06:53:38;-0.70;99.90
19920;DHT22;10122;50.074;19.920;2024-01-30T06:56:04;-0.70;99.90
19920;DHT22;10122;50.074;19.920;2024-01-30T06:58:30;-0.70;99.90
19920;DHT22;10122;50.074;19.920;2024-01-30T07:00:56;-0.60;99.90
19920;DHT22;10122;50.074;19.920;2024-01-30T07:03:21;-0.60;99.90
19920;DHT22;10122;50.074;19.920;2024-01-30T07:05:47;-0.60;99.90
19920;DHT22;10122;50.074;19.920;2024-01-30T07:08:13;-0.50;99.90
19920;DHT22;10122;50.074;19.920;2024-01-30T07:10:40;-0.50;99.90
19920;DHT22;10122;50.074;19.920;2024-01-30T07:13:13;-0.50;99.90
19920;DHT22;10122;50.074;19.920;2024-01-30T07:15:42;-0.40;99.90
19920;DHT22;10122;50.074;19.920;2024-01-30T07:18:07;-0.40;99.90
19920;DHT22;10122;50.074;19.920;2024-01-30T07:20:33;-0.40;99.90
19920;DHT22;10122;50.074;19.920;2024-01-30T07:22:59;-0.10;99.90
19920;DHT22;10122;50.074;19.920;2024-01-30T07:25:24;0.00;99.90
19920;DHT22;10122;50.074;19.920;2024-01-30T07:27:54;0.10;99.90
19920;DHT22;10122;50.074;19.920;2024-01-30T07:30:20;0.00;99.90
19920;DHT22;10122;50.074;19.920;2024-01-30T07:32:46;0.00;99.90
19920;DHT22;10122;50.074;19.920;2024-01-30T07:35:15;0.10;99.90
19920;DHT22;10122;50.074;19.920;2024-01-30T07:37:41;0.10;99.90
19920;DHT22;10122;50.074;19.920;2024-01-30T07:40:07;0.20;99.90
19920;DHT22;10122;50.074;19.920;2024-01-30T07:42:33;0.20;99.90
19920;DHT22;10122;50.074;19.920;2024-01-30T07:45:00;0.20;99.90
19920;DHT22;10122;50.074;19.920;2024-01-30T07:47:26;0.20;99.90
19920;DHT22;10122;50.074;19.920;2024-01-30T07:49:51;0.30;99.90
19920;DHT22;10122;50.074;19.920;2024-01-30T07:52:18;0.30;99.90
19920;DHT22;10122;50.074;19.920;2024-01-30T07:54:43;0.40;99.90
19920;DHT22;10122;50.074;19.920;2024-01-30T07:57:09;0.40;99.90
19920;DHT22;10122;50.074;19.920;2024-01-30T07:59:35;0.40;99.90
19920;DHT22;10122;50.074;19.920;2024-01-30T08:02:00;0.50;99.90
19920;DHT22;10122;50.074;19.920;2024-01-30T08:04:26;0.60;99.90
19920;DHT22;10122;50.074;19.920;2024-01-30T08:06:52;0.90;99.90
19920;DHT22;10122;50.074;19.920;2024-01-30T08:09:18;1.40;99.90
19920;DHT22;10122;50.074;19.920;2024-01-30T08:11:43;2.00;99.90
19920;DHT22;10122;50.074;19.920;2024-01-30T08:14:09;2.80;99.90
19920;DHT22;10122;50.074;19.920;2024-01-30T08:16:35;3.50;99.90
19920;DHT22;10122;50.074;19.920;2024-01-30T08:19:00;4.10;99.90
19920;DHT22;10122;50.074;19.920;2024-01-30T08:21:26;4.80;99.90
19920;DHT22;10122;50.074;19.920;2024-01-30T08:23:52;5.40;99.90
19920;DHT22;10122;50.074;19.920;2024-01-30T08:26:18;5.90;99.90
19920;DHT22;10122;50.074;19.920;2024-01-30T08:28:43;6.50;99.90
19920;DHT22;10122;50.074;19.920;2024-01-30T08:31:10;7.10;99.90
19920;DHT22;10122;50.074;19.920;2024-01-30T08:33:37;7.50;99.90
19920;DHT22;10122;50.074;19.920;2024-01-30T08:36:03;7.80;99.90
19920;DHT22;10122;50.074;19.920;2024-01-30T08:38:29;8.00;99.90
19920;DHT22;10122;50.074;19.920;2024-01-30T08:40:56;8.20;99.90
19920;DHT22;10122;50.074;19.920;2024-01-30T08:43:21;8.40;99.90
19920;DHT22;10122;50.074;19.920;2024-01-30T08:45:47;8.70;99.90
19920;DHT22;10122;50.074;19.920;2024-01-30T08:48:12;9.00;99.90
19920;DHT22;10122;50.074;19.920;2024-01-30T08:50:38;9.20;99.90
19920;DHT22;10122;50.074;19.920;2024-01-30T08:53:04;9.50;99.90
19920;DHT22;10122;50.074;19.920;2024-01-30T08:55:30;9.70;99.90
19920;DHT22;10122;50.074;19.920;2024-01-30T08:57:55;9.90;99.90
19920;DHT22;10122;50.074;19.920;2024-01-30T09:00:21;10.30;99.90
19920;DHT22;10122;50.074;19.920;2024-01-30T09:02:47;10.70;99.90
19920;DHT22;10122;50.074;19.920;2024-01-30T09:05:12;10.90;99.90
19920;DHT22;10122;50.074;19.920;2024-01-30T09:07:38;11.00;99.90
19920;DHT22;10122;50.074;19.920;2024-01-30T09:10:04;11.10;99.90
19920;DHT22;10122;50.074;19.920;2024-01-30T09:12:49;11.20;99.90
19920;DHT22;10122;50.074;19.920;2024-01-30T09:15:22;11.40;99.90
19920;DHT22;10122;50.074;19.920;2024-01-30T09:17:48;11.50;99.90
19920;DHT22;10122;50.074;19.920;2024-01-30T09:20:14;11.50;99.90
19920;DHT22;10122;50.074;19.920;2024-01-30T09:22:39;11.50;99.50
19920;DHT22;10122;50.074;19.920;2024-01-30T09:25:05;11.70;99.90
19920;DHT22;10122;50.074;19.920;2024-01-30T09:27:31;11.90;98.90
19920;DHT22;10122;50.074;19.920;2024-01-30T09:29:56;12.00;98.70
19920;DHT22;10122;50.074;19.920;2024-01-30T09:32:22;12.10;98.40
19920;DHT22;10122;50.074;19.920;2024-01-30T09:34:48;12.30;98.00
19920;DHT22;10122;50.074;19.920;2024-01-30T09:37:13;12.40;97.30
19920;DHT22;10122;50.074;19.920;2024-01-30T09:39:41;12.50;96.10
19920;DHT22;10122;50.074;19.920;2024-01-30T09:42:25;12.60;95.90
19920;DHT22;10122;50.074;19.920;2024-01-30T09:44:53;12.70;95.30
19920;DHT22;10122;50.074;19.920;2024-01-30T09:47:19;12.80;95.00
19920;DHT22;10122;50.074;19.920;2024-01-30T09:49:46;12.90;94.90
19920;DHT22;10122;50.074;19.920;2024-01-30T09:52:11;13.10;94.00
19920;DHT22;10122;50.074;19.920;2024-01-30T09:54:38;13.10;93.10
19920;DHT22;10122;50.074;19.920;2024-01-30T09:57:04;13.10;93.00
19920;DHT22;10122;50.074;19.920;2024-01-30T09:59:30;13.20;92.30
19920;DHT22;10122;50.074;19.920;2024-01-30T10:01:57;13.20;91.50
19920;DHT22;10122;50.074;19.920;2024-01-30T10:04:22;13.10;91.30
19920;DHT22;10122;50.074;19.920;2024-01-30T10:06:48;13.00;91.30
19920;DHT22;10122;50.074;19.920;2024-01-30T10:09:14;13.00;91.70
19920;DHT22;10122;50.074;19.920;2024-01-30T10:11:39;13.10;91.10
19920;DHT22;10122;50.074;19.920;2024-01-30T10:14:05;13.20;90.90
19920;DHT22;10122;50.074;19.920;2024-01-30T10:16:31;13.20;90.00
19920;DHT22;10122;50.074;19.920;2024-01-30T10:18:56;13.20;89.70
19920;DHT22;10122;50.074;19.920;2024-01-30T10:21:22;13.20;87.50
19920;DHT22;10122;50.074;19.920;2024-01-30T10:23:49;13.20;88.10
19920;DHT22;10122;50.074;19.920;2024-01-30T10:26:16;13.20;87.70
19920;DHT22;10122;50.074;19.920;2024-01-30T10:28:43;13.30;87.70
19920;DHT22;10122;50.074;19.920;2024-01-30T10:31:08;13.30;86.20
19920;DHT22;10122;50.074;19.920;2024-01-30T10:33:34;13.30;86.20
19920;DHT22;10122;50.074;19.920;2024-01-30T10:36:02;13.40;86.10
19920;DHT22;10122;50.074;19.920;2024-01-30T10:38:31;13.40;85.40
19920;DHT22;10122;50.074;19.920;2024-01-30T10:40:58;13.40;84.30
19920;DHT22;10122;50.074;19.920;2024-01-30T10:43:31;13.40;84.00
19920;DHT22;10122;50.074;19.920;2024-01-30T10:46:17;13.40;83.80
19920;DHT22;10122;50.074;19.920;2024-01-30T10:48:44;13.40;82.70
19920;DHT22;10122;50.074;19.920;2024-01-30T10:51:14;13.40;82.30
19920;DHT22;10122;50.074;19.920;2024-01-30T10:53:41;13.30;79.60
19920;DHT22;10122;50.074;19.920;2024-01-30T10:56:09;13.10;78.70
19920;DHT22;10122;50.074;19.920;2024-01-30T10:58:35;12.90;78.70
19920;DHT22;10122;50.074;19.920;2024-01-30T11:01:01;12.80;79.80
19920;DHT22;10122;50.074;19.920;2024-01-30T11:03:27;12.80;82.30
19920;DHT22;10122;50.074;19.920;2024-01-30T11:05:53;12.70;81.10
19920;DHT22;10122;50.074;19.920;2024-01-30T11:08:25;12.70;79.80
19920;DHT22;10122;50.074;19.920;2024-01-30T11:10:56;12.60;79.20
19920;DHT22;10122;50.074;19.920;2024-01-30T11:13:31;12.50;78.60
19920;DHT22;10122;50.074;19.920;2024-01-30T11:16:01;12.40;78.70
19920;DHT22;10122;50.074;19.920;2024-01-30T11:18:29;12.30;80.20
19920;DHT22;10122;50.074;19.920;2024-01-30T11:21:04;12.20;79.80
19920;DHT22;10122;50.074;19.920;2024-01-30T11:23:30;12.10;81.70
19920;DHT22;10122;50.074;19.920;2024-01-30T11:25:58;12.00;82.90
19920;DHT22;10122;50.074;19.920;2024-01-30T11:28:24;12.00;83.00
19920;DHT22;10122;50.074;19.920;2024-01-30T11:30:50;11.90;82.90
19920;DHT22;10122;50.074;19.920;2024-01-30T11:33:28;11.80;82.40
19920;DHT22;10122;50.074;19.920;2024-01-30T11:35:57;11.70;83.10
19920;DHT22;10122;50.074;19.920;2024-01-30T11:38:23;11.50;83.40
19920;DHT22;10122;50.074;19.920;2024-01-30T11:40:51;11.40;84.80
19920;DHT22;10122;50.074;19.920;2024-01-30T11:43:18;11.30;85.60
19920;DHT22;10122;50.074;19.920;2024-01-30T11:45:44;11.30;85.30
19920;DHT22;10122;50.074;19.920;2024-01-30T11:48:12;11.20;86.20
19920;DHT22;10122;50.074;19.920;2024-01-30T11:50:38;11.10;85.80
19920;DHT22;10122;50.074;19.920;2024-01-30T11:53:05;11.00;87.30
19920;DHT22;10122;50.074;19.920;2024-01-30T11:55:32;11.00;87.00
19920;DHT22;10122;50.074;19.920;2024-01-30T11:57:58;10.90;86.30
19920;DHT22;10122;50.074;19.920;2024-01-30T12:00:24;10.90;86.50
19920;DHT22;10122;50.074;19.920;2024-01-30T12:02:54;10.90;86.70
19920;DHT22;10122;50.074;19.920;2024-01-30T12:05:24;10.80;87.00
19920;DHT22;10122;50.074;19.920;2024-01-30T12:07:50;10.70;87.30
19920;DHT22;10122;50.074;19.920;2024-01-30T12:10:16;10.70;87.50
19920;DHT22;10122;50.074;19.920;2024-01-30T12:12:49;10.70;88.30
19920;DHT22;10122;50.074;19.920;2024-01-30T12:15:15;10.70;88.10
19920;DHT22;10122;50.074;19.920;2024-01-30T12:17:41;10.70;87.60
19920;DHT22;10122;50.074;19.920;2024-01-30T12:22:38;10.70;88.30
19920;DHT22;10122;50.074;19.920;2024-01-30T12:25:14;10.70;88.50
19920;DHT22;10122;50.074;19.920;2024-01-30T12:27:43;10.70;88.40
19920;DHT22;10122;50.074;19.920;2024-01-30T12:30:10;10.70;88.10
19920;DHT22;10122;50.074;19.920;2024-01-30T12:32:40;10.80;88.20
19920;DHT22;10122;50.074;19.920;2024-01-30T12:37:35;10.90;88.30
19920;DHT22;10122;50.074;19.920;2024-01-30T12:40:01;10.90;87.30
19920;DHT22;10122;50.074;19.920;2024-01-30T12:42:27;10.90;86.80
19920;DHT22;10122;50.074;19.920;2024-01-30T12:44:53;10.90;87.30
19920;DHT22;10122;50.074;19.920;2024-01-30T12:47:21;10.90;86.70
19920;DHT22;10122;50.074;19.920;2024-01-30T12:49:47;10.90;87.40
19920;DHT22;10122;50.074;19.920;2024-01-30T12:52:16;10.90;88.10
19920;DHT22;10122;50.074;19.920;2024-01-30T12:54:41;10.90;86.70
19920;DHT22;10122;50.074;19.920;2024-01-30T12:57:07;10.90;86.80
19920;DHT22;10122;50.074;19.920;2024-01-30T12:59:33;11.00;87.00
19920;DHT22;10122;50.074;19.920;2024-01-30T13:02:00;11.00;87.30
19920;DHT22;10122;50.074;19.920;2024-01-30T13:04:27;11.10;87.00
19920;DHT22;10122;50.074;19.920;2024-01-30T13:06:53;11.10;86.60
19920;DHT22;10122;50.074;19.920;2024-01-30T13:09:19;11.20;86.80
19920;DHT22;10122;50.074;19.920;2024-01-30T13:11:45;11.10;86.00
19920;DHT22;10122;50.074;19.920;2024-01-30T13:14:10;11.10;85.30
19920;DHT22;10122;50.074;19.920;2024-01-30T13:16:36;11.10;85.50
19920;DHT22;10122;50.074;19.920;2024-01-30T13:19:02;11.10;86.50
19920;DHT22;10122;50.074;19.920;2024-01-30T13:21:29;11.20;86.30
19920;DHT22;10122;50.074;19.920;2024-01-30T13:23:54;11.20;85.50
19920;DHT22;10122;50.074;19.920;2024-01-30T13:26:21;11.20;85.30
19920;DHT22;10122;50.074;19.920;2024-01-30T13:28:47;11.20;86.40
19920;DHT22;10122;50.074;19.920;2024-01-30T13:31:16;11.20;84.90
19920;DHT22;10122;50.074;19.920;2024-01-30T13:33:42;11.20;84.90
19920;DHT22;10122;50.074;19.920;2024-01-30T13:36:09;11.20;85.40
19920;DHT22;10122;50.074;19.920;2024-01-30T13:38:35;11.20;84.80
19920;DHT22;10122;50.074;19.920;2024-01-30T13:41:01;11.20;84.00
19920;DHT22;10122;50.074;19.920;2024-01-30T13:43:28;11.10;84.80
19920;DHT22;10122;50.074;19.920;2024-01-30T13:45:54;11.20;86.20
19920;DHT22;10122;50.074;19.920;2024-01-30T13:48:19;11.20;85.90
19920;DHT22;10122;50.074;19.920;2024-01-30T13:50:45;11.30;85.60
19920;DHT22;10122;50.074;19.920;2024-01-30T13:53:11;11.40;85.30
19920;DHT22;10122;50.074;19.920;2024-01-30T13:55:37;11.40;84.80
19920;DHT22;10122;50.074;19.920;2024-01-30T13:58:05;11.40;84.80
19920;DHT22;10122;50.074;19.920;2024-01-30T14:00:30;11.40;85.10
19920;DHT22;10122;50.074;19.920;2024-01-30T14:02:56;11.40;85.00
19920;DHT22;10122;50.074;19.920;2024-01-30T14:05:24;11.30;83.80
19920;DHT22;10122;50.074;19.920;2024-01-30T14:07:51;11.20;83.70
19920;DHT22;10122;50.074;19.920;2024-01-30T14:10:17;11.20;84.80
19920;DHT22;10122;50.074;19.920;2024-01-30T14:12:43;11.10;85.30
19920;DHT22;10122;50.074;19.920;2024-01-30T14:15:10;11.10;85.70
19920;DHT22;10122;50.074;19.920;2024-01-30T14:17:36;11.10;85.70
19920;DHT22;10122;50.074;19.920;2024-01-30T14:20:06;11.10;86.40
19920;DHT22;10122;50.074;19.920;2024-01-30T14:22:33;11.10;85.70
19920;DHT22;10122;50.074;19.920;2024-01-30T14:24:59;11.00;85.60
19920;DHT22;10122;50.074;19.920;2024-01-30T14:27:25;11.00;85.90
19920;DHT22;10122;50.074;19.920;2024-01-30T14:29:51;10.90;86.40
19920;DHT22;10122;50.074;19.920;2024-01-30T14:32:17;10.90;86.80
19920;DHT22;10122;50.074;19.920;2024-01-30T14:34:42;10.90;87.10
19920;DHT22;10122;50.074;19.920;2024-01-30T14:37:08;10.90;87.40
19920;DHT22;10122;50.074;19.920;2024-01-30T14:39:34;10.90;87.50
19920;DHT22;10122;50.074;19.920;2024-01-30T14:42:03;10.80;87.10
19920;DHT22;10122;50.074;19.920;2024-01-30T14:44:29;10.70;87.80
19920;DHT22;10122;50.074;19.920;2024-01-30T14:46:56;10.70;95.60
19920;DHT22;10122;50.074;19.920;2024-01-30T14:49:21;10.70;99.90
19920;DHT22;10122;50.074;19.920;2024-01-30T14:51:47;10.60;99.90
19920;DHT22;10122;50.074;19.920;2024-01-30T14:54:13;10.50;99.90
19920;DHT22;10122;50.074;19.920;2024-01-30T14:56:39;10.40;99.90
19920;DHT22;10122;50.074;19.920;2024-01-30T14:59:05;10.30;99.90
19920;DHT22;10122;50.074;19.920;2024-01-30T15:01:30;10.20;99.90
19920;DHT22;10122;50.074;19.920;2024-01-30T15:03:56;10.10;99.10
19920;DHT22;10122;50.074;19.920;2024-01-30T15:06:22;10.10;98.80
19920;DHT22;10122;50.074;19.920;2024-01-30T15:08:50;10.00;98.00
19920;DHT22;10122;50.074;19.920;2024-01-30T15:11:16;10.00;97.10
19920;DHT22;10122;50.074;19.920;2024-01-30T15:13:42;9.80;96.90
19920;DHT22;10122;50.074;19.920;2024-01-30T15:16:07;9.80;96.80
19920;DHT22;10122;50.074;19.920;2024-01-30T15:18:33;9.70;97.00
19920;DHT22;10122;50.074;19.920;2024-01-30T15:20:59;9.60;96.50